createdAt,value
2019-03-08T00:00:44.987Z,13.05
2019-03-08T00:01:53.058Z,13.04
2019-03-08T00:03:01.589Z,13.04
2019-03-08T00:04:10.032Z,13.04
2019-03-08T00:05:18.272Z,13.03
2019-03-08T00:06:26.210Z,13.02
2019-03-08T00:07:34.358Z,13.02
2019-03-08T00:08:42.458Z,13.01
2019-03-08T00:09:50.761Z,12.99
2019-03-08T00:10:59.504Z,13.00
2019-03-08T00:12:07.983Z,12.96
2019-03-08T00:13:16.625Z,12.95
2019-03-08T00:14:29.925Z,12.96
2019-03-08T00:15:38.096Z,12.95
2019-03-08T00:16:46.275Z,12.93
2019-03-08T00:17:54.485Z,12.93
2019-03-08T00:19:02.759Z,12.93
2019-03-08T00:20:12.033Z,12.94
2019-03-08T00:21:20.516Z,12.93
2019-03-08T00:22:28.365Z,12.92
2019-03-08T00:23:36.441Z,12.90
2019-03-08T00:24:44.463Z,12.91
2019-03-08T00:25:52.333Z,12.91
2019-03-08T00:27:00.501Z,12.90
2019-03-08T00:28:08.308Z,12.89
2019-03-08T00:29:16.506Z,12.89
2019-03-08T00:30:24.735Z,12.88
2019-03-08T00:31:32.741Z,12.88
2019-03-08T00:32:40.768Z,12.89
2019-03-08T00:33:48.689Z,12.88
2019-03-08T00:34:56.767Z,12.88
2019-03-08T00:36:05.089Z,12.88
2019-03-08T00:37:13.515Z,12.86
2019-03-08T00:38:21.964Z,12.87
2019-03-08T00:39:29.862Z,12.87
2019-03-08T00:40:37.870Z,12.88
2019-03-08T00:41:45.915Z,12.87
2019-03-08T00:42:53.938Z,12.86
2019-03-08T00:44:02.077Z,12.86
2019-03-08T00:45:13.809Z,12.86
2019-03-08T00:46:21.828Z,12.85
2019-03-08T00:47:29.908Z,12.86
2019-03-08T00:48:38.103Z,12.85
2019-03-08T00:49:46.313Z,12.84
2019-03-08T00:50:54.325Z,12.84
2019-03-08T00:52:02.367Z,12.83
2019-03-08T00:53:10.435Z,12.83
2019-03-08T00:54:18.759Z,12.82
2019-03-08T00:55:27.419Z,12.82
2019-03-08T00:56:35.619Z,12.81
2019-03-08T00:57:44.017Z,12.80
2019-03-08T00:58:52.430Z,12.80
2019-03-08T01:00:00.767Z,12.78
2019-03-08T01:01:09.180Z,12.78
2019-03-08T01:02:17.416Z,12.79
2019-03-08T01:03:25.822Z,12.77
2019-03-08T01:04:33.889Z,12.78
2019-03-08T01:05:42.344Z,12.78
2019-03-08T01:06:50.482Z,12.77
2019-03-08T01:07:58.740Z,12.76
2019-03-08T01:09:09.577Z,12.75
2019-03-08T01:10:24.598Z,12.75
2019-03-08T01:11:32.591Z,12.73
2019-03-08T01:12:40.983Z,12.70
2019-03-08T01:13:49.022Z,12.70
2019-03-08T01:14:57.360Z,12.70
2019-03-08T01:16:05.388Z,12.68
2019-03-08T01:17:13.381Z,12.66
2019-03-08T01:18:21.526Z,12.67
2019-03-08T01:19:29.560Z,12.65
2019-03-08T01:20:37.754Z,12.64
2019-03-08T01:21:45.823Z,12.62
2019-03-08T01:22:54.259Z,12.60
2019-03-08T01:24:02.376Z,12.58
2019-03-08T01:25:11.241Z,12.57
2019-03-08T01:26:19.885Z,12.54
2019-03-08T01:27:28.161Z,12.53
2019-03-08T01:28:36.957Z,12.52
2019-03-08T01:29:47.366Z,12.51
2019-03-08T01:30:55.650Z,12.50
2019-03-08T01:32:05.474Z,12.48
2019-03-08T01:33:14.022Z,12.48
2019-03-08T01:34:22.331Z,12.47
2019-03-08T01:35:30.722Z,12.45
2019-03-08T01:36:38.701Z,12.43
2019-03-08T01:37:46.651Z,12.42
2019-03-08T01:38:54.781Z,12.41
2019-03-08T01:40:03.087Z,12.41
2019-03-08T01:41:11.559Z,12.39
2019-03-08T01:42:19.790Z,12.39
2019-03-08T01:43:27.923Z,12.37
2019-03-08T01:44:36.085Z,12.37
2019-03-08T01:45:44.100Z,12.36
2019-03-08T01:46:52.482Z,12.34
2019-03-08T01:48:00.783Z,12.33
2019-03-08T01:49:09.396Z,12.32
2019-03-08T01:50:17.594Z,12.32
2019-03-08T01:51:26.262Z,12.30
2019-03-08T01:52:34.356Z,12.30
2019-03-08T01:53:42.695Z,12.30
2019-03-08T01:54:51.101Z,12.30
2019-03-08T01:55:59.277Z,12.29
2019-03-08T01:57:07.468Z,12.29
2019-03-08T01:58:15.892Z,12.29
2019-03-08T01:59:24.479Z,12.31
2019-03-08T02:00:32.725Z,12.30
2019-03-08T02:01:41.236Z,12.30
2019-03-08T02:02:49.921Z,12.30
2019-03-08T02:03:58.341Z,12.29
2019-03-08T02:05:08.418Z,12.29
2019-03-08T02:06:16.695Z,12.28
2019-03-08T02:07:25.297Z,12.28
2019-03-08T02:08:33.674Z,12.27
2019-03-08T02:09:41.964Z,12.27
2019-03-08T02:10:50.260Z,12.27
2019-03-08T02:11:58.718Z,12.25
2019-03-08T02:13:07.219Z,12.25
2019-03-08T02:14:15.627Z,12.26
2019-03-08T02:15:24.323Z,12.26
2019-03-08T02:16:32.631Z,12.26
2019-03-08T02:17:41.039Z,12.25
2019-03-08T02:18:49.219Z,12.27
2019-03-08T02:19:58.057Z,12.25
2019-03-08T02:21:07.330Z,12.25
2019-03-08T02:22:16.212Z,12.26
2019-03-08T02:23:24.476Z,12.26
2019-03-08T02:24:32.847Z,12.25
2019-03-08T02:25:41.504Z,12.26
2019-03-08T02:26:49.704Z,12.25
2019-03-08T02:27:58.079Z,12.25
2019-03-08T02:29:06.721Z,12.24
2019-03-08T02:30:19.729Z,12.24
2019-03-08T02:31:27.933Z,12.24
2019-03-08T02:32:36.269Z,12.23
2019-03-08T02:33:44.529Z,12.22
2019-03-08T02:34:52.835Z,12.22
2019-03-08T02:36:01.136Z,12.22
2019-03-08T02:37:09.657Z,12.20
2019-03-08T02:38:17.995Z,12.21
2019-03-08T02:39:26.353Z,12.20
2019-03-08T02:40:36.544Z,12.19
2019-03-08T02:41:44.564Z,12.20
2019-03-08T02:42:53.198Z,12.20
2019-03-08T02:44:01.288Z,12.19
2019-03-08T02:45:09.989Z,12.19
2019-03-08T02:46:18.060Z,12.19
2019-03-08T02:47:25.962Z,12.19
2019-03-08T02:48:33.935Z,12.17
2019-03-08T02:49:41.887Z,12.17
2019-03-08T02:50:50.045Z,12.18
2019-03-08T02:51:58.185Z,12.19
2019-03-08T02:53:06.790Z,12.18
2019-03-08T02:54:15.149Z,12.18
2019-03-08T02:55:23.590Z,12.18
2019-03-08T02:56:32.521Z,12.18
2019-03-08T02:57:40.806Z,12.19
2019-03-08T02:58:49.328Z,12.18
2019-03-08T02:59:57.474Z,12.20
2019-03-08T03:01:06.008Z,12.20
2019-03-08T03:02:14.277Z,12.20
2019-03-08T03:03:22.397Z,12.20
2019-03-08T03:04:30.826Z,12.19
2019-03-08T03:05:39.439Z,12.20
2019-03-08T03:06:47.533Z,12.21
2019-03-08T03:07:55.648Z,12.21
2019-03-08T03:09:03.913Z,12.22
2019-03-08T03:10:14.230Z,12.23
2019-03-08T03:11:22.261Z,12.25
2019-03-08T03:12:30.439Z,12.25
2019-03-08T03:13:38.777Z,12.25
2019-03-08T03:14:46.976Z,12.25
2019-03-08T03:15:55.126Z,12.26
2019-03-08T03:17:03.254Z,12.26
2019-03-08T03:18:12.588Z,12.28
2019-03-08T03:19:21.053Z,12.29
2019-03-08T03:20:29.290Z,12.28
2019-03-08T03:21:37.334Z,12.30
2019-03-08T03:22:46.006Z,12.29
2019-03-08T03:23:54.617Z,12.30
2019-03-08T03:25:02.622Z,12.30
2019-03-08T03:26:10.901Z,12.31
2019-03-08T03:27:19.228Z,12.32
2019-03-08T03:28:27.529Z,12.31
2019-03-08T03:29:36.075Z,12.30
2019-03-08T03:30:44.431Z,12.32
2019-03-08T03:31:52.672Z,12.31
2019-03-08T03:33:01.067Z,12.31
2019-03-08T03:34:09.639Z,12.31
2019-03-08T03:35:17.992Z,12.31
2019-03-08T03:36:26.354Z,12.31
2019-03-08T03:37:34.650Z,12.31
2019-03-08T03:38:43.170Z,12.33
2019-03-08T03:39:51.674Z,12.33
2019-03-08T03:40:59.964Z,12.33
2019-03-08T03:42:08.733Z,12.32
2019-03-08T03:43:16.965Z,12.32
2019-03-08T03:44:25.224Z,12.33
2019-03-08T03:45:34.231Z,12.33
2019-03-08T03:46:42.603Z,12.32
2019-03-08T03:47:51.135Z,12.31
2019-03-08T03:49:00.023Z,12.32
2019-03-08T03:50:13.417Z,12.32
2019-03-08T03:51:21.596Z,12.33
2019-03-08T03:52:29.856Z,12.32
2019-03-08T03:53:38.349Z,12.32
2019-03-08T03:54:46.450Z,12.32
2019-03-08T03:55:54.896Z,12.32
2019-03-08T03:57:04.886Z,12.33
2019-03-08T03:58:13.087Z,12.34
2019-03-08T03:59:21.203Z,12.34
2019-03-08T04:00:29.469Z,12.32
2019-03-08T04:01:39.337Z,12.32
2019-03-08T04:02:47.419Z,12.33
2019-03-08T04:03:55.621Z,12.32
2019-03-08T04:05:03.483Z,12.32
2019-03-08T04:06:11.914Z,12.32
2019-03-08T04:07:19.990Z,12.31
2019-03-08T04:08:28.131Z,12.29
2019-03-08T04:09:36.257Z,12.30
2019-03-08T04:10:44.468Z,12.29
2019-03-08T04:11:53.128Z,12.30
2019-03-08T04:13:01.521Z,12.29
2019-03-08T04:14:10.242Z,12.29
2019-03-08T04:15:20.492Z,12.28
2019-03-08T04:16:28.895Z,12.27
2019-03-08T04:17:37.156Z,12.26
2019-03-08T04:18:45.289Z,12.25
2019-03-08T04:19:53.885Z,12.26
2019-03-08T04:21:02.242Z,12.24
2019-03-08T04:22:10.605Z,12.24
2019-03-08T04:23:19.010Z,12.24
2019-03-08T04:24:27.290Z,12.25
2019-03-08T04:25:35.616Z,12.25
2019-03-08T04:26:43.992Z,12.26
2019-03-08T04:27:52.385Z,12.28
2019-03-08T04:29:01.030Z,12.30
2019-03-08T04:30:18.927Z,12.29
2019-03-08T04:31:26.980Z,12.31
2019-03-08T04:32:34.897Z,12.32
2019-03-08T04:33:43.226Z,12.32
2019-03-08T04:34:51.535Z,12.33
2019-03-08T04:35:59.729Z,12.34
2019-03-08T04:37:09.155Z,12.33
2019-03-08T04:38:17.621Z,12.33
2019-03-08T04:39:25.910Z,12.32
2019-03-08T04:40:33.974Z,12.30
2019-03-08T04:41:42.055Z,12.29
2019-03-08T04:42:50.479Z,12.30
2019-03-08T04:43:58.557Z,12.30
2019-03-08T04:45:10.765Z,12.29
2019-03-08T04:46:19.258Z,12.28
2019-03-08T04:47:27.306Z,12.27
2019-03-08T04:48:35.229Z,12.26
2019-03-08T04:49:43.487Z,12.24
2019-03-08T04:50:51.595Z,12.25
2019-03-08T04:51:59.688Z,12.24
2019-03-08T04:53:07.598Z,12.25
2019-03-08T04:54:15.852Z,12.25
2019-03-08T04:55:23.816Z,12.25
2019-03-08T04:56:31.822Z,12.26
2019-03-08T04:57:40.196Z,12.26
2019-03-08T04:58:48.140Z,12.25
2019-03-08T04:59:56.257Z,12.23
2019-03-08T05:01:04.612Z,12.22
2019-03-08T05:02:12.859Z,12.21
2019-03-08T05:03:21.364Z,12.20
2019-03-08T05:04:29.768Z,12.18
2019-03-08T05:05:38.045Z,12.17
2019-03-08T05:06:46.478Z,12.17
2019-03-08T05:07:54.855Z,12.15
2019-03-08T05:09:04.119Z,12.15
2019-03-08T05:10:20.320Z,12.13
2019-03-08T05:11:28.439Z,12.13
2019-03-08T05:12:36.645Z,12.12
2019-03-08T05:13:45.102Z,12.10
2019-03-08T05:14:53.053Z,12.11
2019-03-08T05:16:00.836Z,12.12
2019-03-08T05:17:09.145Z,12.11
2019-03-08T05:18:17.182Z,12.11
2019-03-08T05:19:25.294Z,12.09
2019-03-08T05:20:33.563Z,12.10
2019-03-08T05:21:41.748Z,12.11
2019-03-08T05:22:49.852Z,12.10
2019-03-08T05:23:57.876Z,12.10
2019-03-08T05:25:09.459Z,12.09
2019-03-08T05:26:17.287Z,12.10
2019-03-08T05:27:25.641Z,12.10
2019-03-08T05:28:34.004Z,12.10
2019-03-08T05:29:42.256Z,12.11
2019-03-08T05:30:50.546Z,12.10
2019-03-08T05:31:58.628Z,12.10
2019-03-08T05:33:06.775Z,12.11
2019-03-08T05:34:15.296Z,12.11
2019-03-08T05:35:23.582Z,12.12
2019-03-08T05:36:32.054Z,12.14
2019-03-08T05:37:40.256Z,12.13
2019-03-08T05:38:49.042Z,12.14
2019-03-08T05:39:57.789Z,12.14
2019-03-08T05:41:06.635Z,12.14
2019-03-08T05:42:15.276Z,12.13
2019-03-08T05:43:23.379Z,12.14
2019-03-08T05:44:31.500Z,12.13
2019-03-08T05:45:39.836Z,12.13
2019-03-08T05:46:48.265Z,12.12
2019-03-08T05:47:56.490Z,12.12
2019-03-08T05:49:04.792Z,12.12
2019-03-08T05:50:13.821Z,12.11
2019-03-08T05:51:22.126Z,12.10
2019-03-08T05:52:30.474Z,12.09
2019-03-08T05:53:39.014Z,12.10
2019-03-08T05:54:47.644Z,12.09
2019-03-08T05:55:55.979Z,12.09
2019-03-08T05:57:04.160Z,12.08
2019-03-08T05:58:12.547Z,12.07
2019-03-08T05:59:20.549Z,12.05
2019-03-08T06:00:33.521Z,12.05
2019-03-08T06:01:40.233Z,12.04
2019-03-08T06:02:48.902Z,12.04
2019-03-08T06:03:57.180Z,12.05
2019-03-08T06:05:07.759Z,12.05
2019-03-08T06:06:16.523Z,12.06
2019-03-08T06:07:25.050Z,12.05
2019-03-08T06:08:33.734Z,12.05
2019-03-08T06:09:42.220Z,12.04
2019-03-08T06:10:50.743Z,12.03
2019-03-08T06:11:59.426Z,12.03
2019-03-08T06:13:08.696Z,12.03
2019-03-08T06:14:16.746Z,12.02
2019-03-08T06:15:25.217Z,12.03
2019-03-08T06:16:33.229Z,12.02
2019-03-08T06:17:41.391Z,12.02
2019-03-08T06:18:49.633Z,12.02
2019-03-08T06:19:58.033Z,12.03
2019-03-08T06:21:06.438Z,12.04
2019-03-08T06:22:14.648Z,12.05
2019-03-08T06:23:22.960Z,12.06
2019-03-08T06:24:31.056Z,12.07
2019-03-08T06:25:38.768Z,12.07
2019-03-08T06:26:46.937Z,12.07
2019-03-08T06:27:55.357Z,12.07
2019-03-08T06:29:03.336Z,12.09
2019-03-08T06:30:13.611Z,12.09
2019-03-08T06:31:21.935Z,12.09
2019-03-08T06:32:29.733Z,12.09
2019-03-08T06:33:37.896Z,12.09
2019-03-08T06:34:46.056Z,12.08
2019-03-08T06:35:54.206Z,12.09
2019-03-08T06:37:02.658Z,12.11
2019-03-08T06:38:11.064Z,12.12
2019-03-08T06:39:19.125Z,12.11
2019-03-08T06:40:27.090Z,12.11
2019-03-08T06:41:35.297Z,12.12
2019-03-08T06:42:43.619Z,12.12
2019-03-08T06:43:51.971Z,12.15
2019-03-08T06:45:00.376Z,12.15
2019-03-08T06:46:08.544Z,12.14
2019-03-08T06:47:16.750Z,12.16
2019-03-08T06:48:24.674Z,12.18
2019-03-08T06:49:32.700Z,12.19
2019-03-08T06:50:40.957Z,12.19
2019-03-08T06:51:49.054Z,12.20
2019-03-08T06:52:57.153Z,12.21
2019-03-08T06:54:05.477Z,12.22
2019-03-08T06:55:15.449Z,12.24
2019-03-08T06:56:23.523Z,12.23
2019-03-08T06:57:31.796Z,12.23
2019-03-08T06:58:47.884Z,12.24
2019-03-08T06:59:57.718Z,12.24
2019-03-08T07:01:07.143Z,12.24
2019-03-08T07:02:16.104Z,12.26
2019-03-08T07:03:24.237Z,12.27
2019-03-08T07:04:32.356Z,12.28
2019-03-08T07:05:40.967Z,12.29
2019-03-08T07:06:49.374Z,12.30
2019-03-08T07:07:57.740Z,12.32
2019-03-08T07:09:07.735Z,12.32
2019-03-08T07:10:15.719Z,12.34
2019-03-08T07:11:23.985Z,12.35
2019-03-08T07:12:32.201Z,12.35
2019-03-08T07:13:40.470Z,12.34
2019-03-08T07:14:48.905Z,12.36
2019-03-08T07:15:56.912Z,12.38
2019-03-08T07:17:04.882Z,12.38
2019-03-08T07:18:13.197Z,12.40
2019-03-08T07:19:21.699Z,12.39
2019-03-08T07:20:37.467Z,12.40
2019-03-08T07:21:50.027Z,12.41
2019-03-08T07:23:06.805Z,12.43
2019-03-08T07:24:16.795Z,12.46
2019-03-08T07:25:51.214Z,12.47
2019-03-08T07:26:56.575Z,12.46
2019-03-08T07:28:18.478Z,12.47
2019-03-08T07:29:31.367Z,12.50
2019-03-08T07:30:44.246Z,12.50
2019-03-08T07:31:53.921Z,12.52
2019-03-08T07:33:03.776Z,12.52
2019-03-08T07:34:16.355Z,12.53
2019-03-08T07:35:24.249Z,12.54
2019-03-08T07:36:44.660Z,12.53
2019-03-08T07:38:01.557Z,12.54
2019-03-08T07:39:35.211Z,12.54
2019-03-08T07:40:44.783Z,12.55
2019-03-08T07:41:54.437Z,12.55
2019-03-08T07:43:04.125Z,12.55
2019-03-08T07:44:14.119Z,12.54
2019-03-08T07:45:27.019Z,12.56
2019-03-08T07:46:54.949Z,12.55
2019-03-08T07:48:07.448Z,12.55
2019-03-08T07:49:28.879Z,12.57
2019-03-08T07:50:54.507Z,12.58
2019-03-08T07:52:04.880Z,12.60
2019-03-08T07:53:13.052Z,12.61
2019-03-08T07:54:25.866Z,12.62
2019-03-08T07:55:35.445Z,12.63
2019-03-08T07:56:45.067Z,12.62
2019-03-08T07:58:00.563Z,12.65
2019-03-08T07:59:10.446Z,12.66
2019-03-08T08:00:36.492Z,12.65
2019-03-08T08:01:46.142Z,12.67
2019-03-08T08:03:05.197Z,12.67
2019-03-08T08:04:22.546Z,12.67
2019-03-08T08:05:57.381Z,12.68
2019-03-08T08:06:59.910Z,12.69
2019-03-08T08:08:09.791Z,12.70
2019-03-08T08:09:22.301Z,12.70
2019-03-08T08:10:32.128Z,12.74
2019-03-08T08:11:52.480Z,12.74
2019-03-08T08:13:02.313Z,12.76
2019-03-08T08:14:10.259Z,12.78
2019-03-08T08:15:29.022Z,12.80
2019-03-08T08:16:55.068Z,12.82
2019-03-08T08:18:17.338Z,12.85
2019-03-08T08:19:45.094Z,12.89
2019-03-08T08:21:03.543Z,12.91
2019-03-08T08:22:13.990Z,12.93
2019-03-08T08:23:34.306Z,12.93
2019-03-08T08:24:38.881Z,12.94
2019-03-08T08:25:48.571Z,12.94
2019-03-08T08:27:10.349Z,12.94
2019-03-08T08:28:20.274Z,12.97
2019-03-08T08:29:34.699Z,12.97
2019-03-08T08:30:55.776Z,13.01
2019-03-08T08:32:23.607Z,13.02
2019-03-08T08:33:33.350Z,13.02
2019-03-08T08:34:43.166Z,13.04
2019-03-08T08:35:59.078Z,13.04
2019-03-08T08:37:20.932Z,13.07
2019-03-08T08:38:30.543Z,13.07
2019-03-08T08:39:55.573Z,13.10
2019-03-08T08:41:05.197Z,13.10
2019-03-08T08:42:18.918Z,13.13
2019-03-08T08:43:26.598Z,13.17
2019-03-08T08:44:36.308Z,13.21
2019-03-08T08:46:00.990Z,13.27
2019-03-08T08:47:19.499Z,13.33
2019-03-08T08:48:45.251Z,13.40
2019-03-08T08:49:55.940Z,13.46
2019-03-08T08:51:04.953Z,13.55
2019-03-08T08:52:17.372Z,13.58
2019-03-08T08:53:43.305Z,13.63
2019-03-08T08:54:51.382Z,13.66
2019-03-08T08:55:59.138Z,13.68
2019-03-08T08:57:17.361Z,13.69
2019-03-08T08:58:29.986Z,13.69
2019-03-08T08:59:43.568Z,13.69
2019-03-08T09:00:57.426Z,13.70
2019-03-08T09:02:19.446Z,13.70
2019-03-08T09:03:31.690Z,13.70
2019-03-08T09:05:01.108Z,13.70
2019-03-08T09:06:11.169Z,13.70
2019-03-08T09:07:36.755Z,13.69
2019-03-08T09:08:47.427Z,13.68
2019-03-08T09:10:04.417Z,13.68
2019-03-08T09:11:14.052Z,13.68
2019-03-08T09:12:24.868Z,13.70
2019-03-08T09:13:39.952Z,13.71
2019-03-08T09:14:47.665Z,13.71
2019-03-08T09:16:12.296Z,13.71
2019-03-08T09:17:22.148Z,13.71
2019-03-08T09:18:31.584Z,13.71
2019-03-08T09:19:44.208Z,13.72
2019-03-08T09:21:02.873Z,13.74
2019-03-08T09:22:24.877Z,13.73
2019-03-08T09:23:50.771Z,13.74
2019-03-08T09:25:09.166Z,13.76
2019-03-08T09:26:24.530Z,13.76
2019-03-08T09:27:36.757Z,13.79
2019-03-08T09:28:50.490Z,13.79
2019-03-08T09:30:05.854Z,13.83
2019-03-08T09:31:25.185Z,13.87
2019-03-08T09:32:34.762Z,13.91
2019-03-08T09:33:47.172Z,13.95
2019-03-08T09:35:06.104Z,13.98
2019-03-08T09:36:31.992Z,14.02
2019-03-08T09:37:53.584Z,14.05
2019-03-08T09:39:10.577Z,14.10
2019-03-08T09:40:19.037Z,14.13
2019-03-08T09:41:28.685Z,14.14
2019-03-08T09:42:44.483Z,14.17
2019-03-08T09:44:06.175Z,14.19
2019-03-08T09:45:16.009Z,14.22
2019-03-08T09:46:35.924Z,14.24
2019-03-08T09:48:02.029Z,14.27
2019-03-08T09:49:18.428Z,14.29
2019-03-08T09:50:34.265Z,14.32
2019-03-08T09:51:43.890Z,14.33
2019-03-08T09:52:53.663Z,14.34
2019-03-08T09:54:06.434Z,14.37
2019-03-08T09:55:15.983Z,14.36
2019-03-08T09:56:23.979Z,14.38
2019-03-08T09:57:36.275Z,14.41
2019-03-08T09:58:49.357Z,14.44
2019-03-08T10:00:04.908Z,14.46
2019-03-08T10:01:21.258Z,14.48
2019-03-08T10:02:30.835Z,14.50
2019-03-08T10:03:52.889Z,14.51
2019-03-08T10:05:02.574Z,14.52
2019-03-08T10:06:12.382Z,14.57
2019-03-08T10:07:24.818Z,14.61
2019-03-08T10:08:40.807Z,14.62
2019-03-08T10:09:50.468Z,14.64
2019-03-08T10:11:12.146Z,14.68
2019-03-08T10:12:22.257Z,14.71
2019-03-08T10:13:34.721Z,14.77
2019-03-08T10:14:48.500Z,14.81
2019-03-08T10:15:57.849Z,14.86
2019-03-08T10:17:10.079Z,14.88
2019-03-08T10:18:19.614Z,14.91
2019-03-08T10:19:44.511Z,14.94
2019-03-08T10:21:10.324Z,14.98
2019-03-08T10:22:22.791Z,15.01
2019-03-08T10:23:38.323Z,15.06
2019-03-08T10:25:03.345Z,15.11
2019-03-08T10:26:20.199Z,15.13
2019-03-08T10:27:45.907Z,15.16
2019-03-08T10:28:55.834Z,15.19
2019-03-08T10:30:05.529Z,15.22
2019-03-08T10:31:13.405Z,15.26
2019-03-08T10:32:37.383Z,15.32
2019-03-08T10:33:46.761Z,15.34
2019-03-08T10:35:23.097Z,15.42
2019-03-08T10:36:27.019Z,15.47
2019-03-08T10:37:41.942Z,15.55
2019-03-08T10:38:54.328Z,15.58
2019-03-08T10:40:05.690Z,15.64
2019-03-08T10:41:15.496Z,15.68
2019-03-08T10:42:23.270Z,15.73
2019-03-08T10:43:32.945Z,15.76
2019-03-08T10:44:55.614Z,15.80
2019-03-08T10:46:15.916Z,15.85
2019-03-08T10:47:34.328Z,15.90
2019-03-08T10:48:50.235Z,15.96
2019-03-08T10:50:05.916Z,16.03
2019-03-08T10:51:21.642Z,16.08
2019-03-08T10:52:34.075Z,16.14
2019-03-08T10:53:46.484Z,16.18
2019-03-08T10:54:58.485Z,16.24
2019-03-08T10:56:21.386Z,16.30
2019-03-08T10:57:31.163Z,16.36
2019-03-08T10:58:46.462Z,16.46
2019-03-08T11:00:04.855Z,16.54
2019-03-08T11:01:32.787Z,16.62
2019-03-08T11:02:45.065Z,16.66
2019-03-08T11:03:52.791Z,16.74
2019-03-08T11:05:04.697Z,16.78
2019-03-08T11:06:23.087Z,16.80
2019-03-08T11:07:38.724Z,16.79
2019-03-08T11:08:52.480Z,16.76
2019-03-08T11:10:17.982Z,16.72
2019-03-08T11:11:30.925Z,16.72
2019-03-08T11:12:43.547Z,16.73
2019-03-08T11:13:51.714Z,16.73
2019-03-08T11:15:07.740Z,16.75
2019-03-08T11:16:32.393Z,16.76
2019-03-08T11:17:51.173Z,16.76
2019-03-08T11:19:08.531Z,16.70
2019-03-08T11:20:25.214Z,16.72
2019-03-08T11:21:51.336Z,16.72
2019-03-08T11:23:16.215Z,16.74
2019-03-08T11:24:25.946Z,16.77
2019-03-08T11:25:35.295Z,16.87
2019-03-08T11:26:54.244Z,16.91
2019-03-08T11:28:08.055Z,16.95
2019-03-08T11:29:18.198Z,16.95
2019-03-08T11:30:30.733Z,16.96
2019-03-08T11:31:40.977Z,16.99
2019-03-08T11:32:56.253Z,17.01
2019-03-08T11:34:08.917Z,17.03
2019-03-08T11:35:24.459Z,17.02
2019-03-08T11:36:37.570Z,17.02
2019-03-08T11:37:47.094Z,17.03
2019-03-08T11:38:56.684Z,17.07
2019-03-08T11:40:24.423Z,17.11
2019-03-08T11:41:34.119Z,17.18
2019-03-08T11:42:46.897Z,17.24
2019-03-08T11:43:56.587Z,17.31
2019-03-08T11:45:12.688Z,17.38
2019-03-08T11:46:24.972Z,17.43
2019-03-08T11:47:50.687Z,17.45
2019-03-08T11:49:16.418Z,17.47
2019-03-08T11:50:27.218Z,17.50
2019-03-08T11:51:50.221Z,17.51
2019-03-08T11:53:02.396Z,17.49
2019-03-08T11:54:14.315Z,17.50
2019-03-08T11:55:31.083Z,17.48
2019-03-08T11:56:56.955Z,17.48
2019-03-08T11:58:12.290Z,17.49
2019-03-08T11:59:24.774Z,17.50
2019-03-08T12:00:34.491Z,17.49
2019-03-08T12:02:00.391Z,17.53
2019-03-08T12:03:16.122Z,17.54
2019-03-08T12:04:29.685Z,17.59
2019-03-08T12:05:57.495Z,17.60
2019-03-08T12:07:07.096Z,17.63
2019-03-08T12:08:32.897Z,17.68
2019-03-08T12:09:48.420Z,17.74
2019-03-08T12:11:10.899Z,17.72
2019-03-08T12:12:20.479Z,17.72
2019-03-08T12:13:32.827Z,17.74
2019-03-08T12:14:58.516Z,17.76
2019-03-08T12:16:08.165Z,17.79
2019-03-08T12:17:31.607Z,17.82
2019-03-08T12:18:43.938Z,17.87
2019-03-08T12:20:02.845Z,17.93
2019-03-08T12:21:18.474Z,17.96
2019-03-08T12:22:31.347Z,17.98
2019-03-08T12:23:43.778Z,18.00
2019-03-08T12:25:06.604Z,18.02
2019-03-08T12:26:22.070Z,18.04
2019-03-08T12:27:37.351Z,18.04
2019-03-08T12:28:59.159Z,18.04
2019-03-08T12:30:13.570Z,18.04
2019-03-08T12:31:28.935Z,18.08
2019-03-08T12:32:39.753Z,18.13
2019-03-08T12:33:53.631Z,18.15
2019-03-08T12:35:12.121Z,18.14
2019-03-08T12:36:23.177Z,18.10
2019-03-08T12:37:35.302Z,18.09
2019-03-08T12:39:01.022Z,18.08
2019-03-08T12:40:25.364Z,18.07
2019-03-08T12:41:51.212Z,18.08
2019-03-08T12:43:07.554Z,18.13
2019-03-08T12:44:13.579Z,18.19
2019-03-08T12:45:21.433Z,18.22
2019-03-08T12:46:30.883Z,18.24
2019-03-08T12:47:55.821Z,18.28
2019-03-08T12:49:11.148Z,18.32
2019-03-08T12:50:26.782Z,18.34
2019-03-08T12:51:36.450Z,18.33
2019-03-08T12:52:48.807Z,18.29
2019-03-08T12:54:14.414Z,18.26
2019-03-08T12:55:22.467Z,18.22
2019-03-08T12:56:30.380Z,18.17
2019-03-08T12:57:39.961Z,18.13
2019-03-08T12:58:49.627Z,18.09
2019-03-08T12:59:59.358Z,18.08
2019-03-08T13:01:14.976Z,18.05
2019-03-08T13:02:24.820Z,18.06
2019-03-08T13:03:50.321Z,18.07
2019-03-08T13:05:16.185Z,18.07
2019-03-08T13:06:42.581Z,18.08
2019-03-08T13:07:58.508Z,18.11
2019-03-08T13:09:27.736Z,18.13
2019-03-08T13:10:35.631Z,18.13
2019-03-08T13:11:43.818Z,18.14
2019-03-08T13:12:51.516Z,18.16
2019-03-08T13:13:59.675Z,18.18
2019-03-08T13:15:16.278Z,18.18
2019-03-08T13:16:24.099Z,18.18
2019-03-08T13:17:32.501Z,18.18
2019-03-08T13:18:40.490Z,18.19
2019-03-08T13:19:48.847Z,18.23
2019-03-08T13:20:56.789Z,18.23
2019-03-08T13:22:04.910Z,18.22
2019-03-08T13:23:13.089Z,18.16
2019-03-08T13:24:21.195Z,18.09
2019-03-08T13:25:29.296Z,18.01
2019-03-08T13:26:37.015Z,17.95
2019-03-08T13:27:45.090Z,17.90
2019-03-08T13:28:53.266Z,17.94
2019-03-08T13:30:01.572Z,17.94
2019-03-08T13:31:09.493Z,17.91
2019-03-08T13:32:17.481Z,17.88
2019-03-08T13:33:25.623Z,17.87
2019-03-08T13:34:33.789Z,17.84
2019-03-08T13:35:41.778Z,17.79
2019-03-08T13:36:49.838Z,17.74
2019-03-08T13:37:57.937Z,17.69
2019-03-08T13:39:08.095Z,17.62
2019-03-08T13:40:17.570Z,17.61
2019-03-08T13:41:25.660Z,17.61
2019-03-08T13:42:33.930Z,17.56
2019-03-08T13:43:41.865Z,17.54
2019-03-08T13:44:49.654Z,17.48
2019-03-08T13:45:57.612Z,17.46
2019-03-08T13:47:05.702Z,17.41
2019-03-08T13:48:14.543Z,17.40
2019-03-08T13:49:22.579Z,17.40
2019-03-08T13:50:30.618Z,17.34
2019-03-08T13:51:38.542Z,17.33
2019-03-08T13:52:46.785Z,17.32
2019-03-08T13:53:54.999Z,17.30
2019-03-08T13:55:03.062Z,17.29
2019-03-08T13:56:11.274Z,17.30
2019-03-08T13:57:19.589Z,17.29
2019-03-08T13:58:27.679Z,17.30
2019-03-08T13:59:35.803Z,17.29
2019-03-08T14:00:44.093Z,17.29
2019-03-08T14:01:52.072Z,17.30
2019-03-08T14:03:00.054Z,17.30
2019-03-08T14:04:08.295Z,17.30
2019-03-08T14:05:16.722Z,17.27
2019-03-08T14:06:24.925Z,17.24
2019-03-08T14:07:32.981Z,17.24
2019-03-08T14:08:41.119Z,17.22
2019-03-08T14:09:49.158Z,17.17
2019-03-08T14:10:57.095Z,17.14
2019-03-08T14:12:05.326Z,17.14
2019-03-08T14:13:13.143Z,17.14
2019-03-08T14:14:21.177Z,17.13
2019-03-08T14:15:29.423Z,17.12
2019-03-08T14:16:37.465Z,17.11
2019-03-08T14:17:45.462Z,17.11
2019-03-08T14:18:53.653Z,17.11
2019-03-08T14:20:02.078Z,17.13
2019-03-08T14:21:10.136Z,17.18
2019-03-08T14:22:18.428Z,17.21
2019-03-08T14:23:26.632Z,17.22
2019-03-08T14:24:34.838Z,17.22
2019-03-08T14:25:43.013Z,17.23
2019-03-08T14:26:51.310Z,17.24
2019-03-08T14:27:59.284Z,17.23
2019-03-08T14:29:07.630Z,17.18
2019-03-08T14:30:32.222Z,17.16
2019-03-08T14:31:49.323Z,17.15
2019-03-08T14:32:57.982Z,17.11
2019-03-08T14:34:06.065Z,17.09
2019-03-08T14:35:14.279Z,17.08
2019-03-08T14:36:22.486Z,17.08
2019-03-08T14:37:30.502Z,17.14
2019-03-08T14:38:38.633Z,17.12
2019-03-08T14:39:46.762Z,17.09
2019-03-08T14:40:57.498Z,17.08
2019-03-08T14:42:10.633Z,17.06
2019-03-08T14:43:26.439Z,17.06
2019-03-08T14:44:39.977Z,17.03
2019-03-08T14:45:58.386Z,17.00
2019-03-08T14:47:08.138Z,17.02
2019-03-08T14:48:16.042Z,17.06
2019-03-08T14:49:24.316Z,17.08
2019-03-08T14:50:35.585Z,17.13
2019-03-08T14:51:44.731Z,17.15
2019-03-08T14:52:55.268Z,17.14
2019-03-08T14:54:02.193Z,17.15
2019-03-08T14:55:14.936Z,17.18
2019-03-08T14:56:22.852Z,17.19
2019-03-08T14:57:30.737Z,17.18
2019-03-08T14:58:40.337Z,17.15
2019-03-08T14:59:49.239Z,17.13
2019-03-08T15:00:57.512Z,17.12
2019-03-08T15:02:05.712Z,17.09
2019-03-08T15:03:14.024Z,17.06
2019-03-08T15:04:22.217Z,17.04
2019-03-08T15:05:30.570Z,17.03
2019-03-08T15:06:38.847Z,16.97
2019-03-08T15:07:47.274Z,16.93
2019-03-08T15:08:56.463Z,16.87
2019-03-08T15:10:07.615Z,16.82
2019-03-08T15:11:16.226Z,16.75
2019-03-08T15:12:24.320Z,16.69
2019-03-08T15:13:32.524Z,16.65
2019-03-08T15:14:40.649Z,16.62
2019-03-08T15:15:49.000Z,16.58